Time;durP1;ratioP1;P1;durP2;ratioP2;P2;SDS_P1;SDS_P2;PMS_P1;PMS_P2;Temp;Humidity;BMP_temperature;BMP_pressure;BME280_temperature;BME280_humidity;BME280_pressure;Samples;Min_cycle;Max_cycle;Signal;HPM_P1;HPM_P2
2022/02/22 00:02:17;;;;;;;10.33;2.33;;;7.80;1.00;8.00;100274.00;;;;5015600;28;20481;-78
2022/02/22 00:04:45;;;;;;;8.47;2.40;;;7.80;1.00;7.90;100276.00;;;;5033238;28;20457;-79
2022/02/22 00:07:14;;;;;;;11.20;3.03;;;7.80;1.00;8.00;100292.00;;;;5017168;28;20452;-81
2022/02/22 00:09:42;;;;;;;7.80;2.63;;;8.00;1.00;8.00;100285.00;;;;5013962;28;20457;-79
2022/02/22 00:12:11;;;;;;;9.23;2.63;;;7.70;1.00;7.90;100292.00;;;;5016133;28;20473;-79
2022/02/22 00:14:40;;;;;;;9.77;2.87;;;7.60;1.00;7.90;100305.00;;;;5024429;28;20568;-79
2022/02/22 00:17:08;;;;;;;9.73;3.97;;;7.60;1.00;7.70;100297.00;;;;5033007;28;20449;-79
2022/02/22 00:19:38;;;;;;;7.27;2.40;;;7.50;1.00;7.70;100311.00;;;;5014696;28;20463;-79
2022/02/22 00:22:06;;;;;;;8.43;2.80;;;7.40;1.00;7.50;100299.00;;;;5025019;28;21021;-80
2022/02/22 00:24:35;;;;;;;6.17;2.27;;;7.30;1.00;7.60;100316.00;;;;5015210;28;20480;-79
2022/02/22 00:27:04;;;;;;;11.23;3.00;;;7.20;1.00;7.50;100322.00;;;;5015658;28;20465;-79
2022/02/22 00:29:33;;;;;;;10.13;3.10;;;7.20;1.00;7.50;100324.00;;;;5030321;28;20549;-79
2022/02/22 00:32:01;;;;;;;10.67;2.60;;;7.20;1.00;7.50;100326.00;;;;5015296;28;20477;-79
2022/02/22 00:34:30;;;;;;;10.37;2.33;;;7.20;1.00;7.60;100334.00;;;;5014274;28;20460;-81
2022/02/22 00:37:00;;;;;;;11.93;3.03;;;7.30;1.00;7.60;100334.00;;;;5015713;28;20467;-79
2022/02/22 00:39:28;;;;;;;9.93;3.30;;;7.30;1.00;7.70;100336.00;;;;5013851;28;20457;-79
2022/02/22 00:41:57;;;;;;;11.40;2.70;;;7.40;1.00;7.70;100339.00;;;;5015117;28;20495;-81
2022/02/22 00:44:27;;;;;;;12.07;3.40;;;7.40;1.00;7.70;100349.00;;;;5015506;28;20483;-80
2022/02/22 00:46:55;;;;;;;12.03;2.80;;;7.80;1.00;7.70;100344.00;;;;5014192;28;21140;-79
2022/02/22 00:49:24;;;;;;;12.20;3.27;;;7.40;1.00;7.80;100335.00;;;;5005495;28;20461;-79
2022/02/22 00:51:53;;;;;;;13.50;2.90;;;7.50;1.00;7.80;100323.00;;;;5017864;28;20473;-78
2022/02/22 00:54:23;;;;;;;11.77;3.67;;;7.60;1.00;7.90;100354.00;;;;5023270;28;21045;-80
2022/02/22 00:56:51;;;;;;;13.27;2.80;;;7.60;1.00;7.90;100340.00;;;;5015328;28;20462;-78
2022/02/22 00:59:19;;;;;;;9.33;2.93;;;7.60;1.00;7.80;100338.00;;;;5016069;28;20458;-79
2022/02/22 01:01:47;;;;;;;9.90;3.10;;;7.60;1.00;7.80;100354.00;;;;5012455;28;21187;-79
2022/02/22 01:04:16;;;;;;;10.00;3.00;;;7.50;1.00;7.70;100371.00;;;;5015436;28;20477;-81
2022/02/22 01:06:44;;;;;;;11.40;3.20;;;7.40;1.00;7.70;100344.00;;;;5015583;28;20483;-81
2022/02/22 01:09:14;;;;;;;10.33;3.00;;;7.40;1.00;7.70;100357.00;;;;5015752;28;21090;-80
2022/02/22 01:11:44;;;;;;;13.57;3.10;;;7.40;1.00;7.80;100390.00;;;;5015672;28;20473;-80
2022/02/22 01:14:13;;;;;;;13.50;3.37;;;7.40;1.00;7.80;100372.00;;;;5012361;28;20570;-81
2022/02/22 01:16:41;;;;;;;14.13;4.30;;;7.60;1.00;7.80;100360.00;;;;5023857;28;20832;-79
2022/02/22 01:19:09;;;;;;;9.70;2.90;;;7.50;1.00;7.80;100352.00;;;;5011868;28;20476;-79
2022/02/22 01:21:38;;;;;;;15.97;3.00;;;7.50;1.00;7.80;100377.00;;;;5014676;28;20915;-79
2022/02/22 01:24:08;;;;;;;11.80;3.07;;;7.50;1.00;7.80;100380.00;;;;5016455;28;20495;-79
2022/02/22 01:26:36;;;;;;;8.20;2.93;;;7.50;1.00;7.70;100368.00;;;;5003436;28;20828;-82
2022/02/22 01:29:06;;;;;;;9.87;2.97;;;7.40;1.00;7.70;100401.00;;;;5012180;28;20552;-82
2022/02/22 01:31:34;;;;;;;13.60;4.17;;;7.40;1.00;7.60;100403.00;;;;5031928;28;20505;-81
2022/02/22 01:34:04;;;;;;;11.63;3.00;;;7.20;1.00;7.60;100397.00;;;;5010469;28;20568;-79
2022/02/22 01:36:32;;;;;;;8.90;3.43;;;7.20;1.00;7.50;100396.00;;;;5017171;28;20468;-80
2022/02/22 01:39:01;;;;;;;12.10;3.67;;;7.20;1.00;7.40;100406.00;;;;5014703;28;20539;-82
2022/02/22 01:41:29;;;;;;;11.73;2.83;;;7.10;1.00;7.50;100407.00;;;;5014818;28;20481;-80
2022/02/22 01:43:57;;;;;;;11.77;3.80;;;7.10;1.00;7.40;100392.00;;;;5025946;28;20575;-80
2022/02/22 01:46:27;;;;;;;11.63;3.80;;;7.10;1.00;7.40;100425.00;;;;5013950;28;20457;-79
2022/02/22 01:48:55;;;;;;;13.40;3.43;;;7.10;1.00;7.40;100457.00;;;;5016322;28;20495;-80
2022/02/22 01:51:24;;;;;;;12.73;4.00;;;7.00;1.00;7.40;100435.00;;;;5007409;28;20454;-79
2022/02/22 01:53:52;;;;;;;15.57;3.90;;;7.40;1.00;7.20;100431.00;;;;5014637;28;20524;-80
2022/02/22 01:56:22;;;;;;;15.47;3.40;;;7.00;1.00;7.30;100431.00;;;;5016476;28;20452;-79
2022/02/22 01:58:51;;;;;;;15.00;5.37;;;7.00;1.00;7.20;100453.00;;;;5015450;28;20446;-81
2022/02/22 02:01:20;;;;;;;12.80;3.83;;;6.90;1.00;7.20;100430.00;;;;5016362;28;20450;-80
2022/02/22 02:03:53;;;;;;;11.33;2.80;;;6.90;1.00;7.10;100444.00;;;;5024442;28;20838;-79
2022/02/22 02:06:22;;;;;;;9.80;2.43;;;6.80;1.00;7.20;100467.00;;;;5025578;28;20492;-79
2022/02/22 02:08:50;;;;;;;14.20;3.70;;;7.20;1.00;7.20;100472.00;;;;5035324;28;20464;-81
2022/02/22 02:11:18;;;;;;;13.63;3.60;;;6.80;1.00;7.10;100480.00;;;;5017291;28;20467;-80
2022/02/22 02:13:48;;;;;;;21.17;5.60;;;6.80;1.00;7.00;100477.00;;;;5014722;28;20472;-79
2022/02/22 02:16:17;;;;;;;16.90;4.57;;;6.70;1.00;6.90;100486.00;;;;5038314;28;20453;-82
2022/02/22 02:18:45;;;;;;;17.60;4.37;;;6.70;1.00;7.00;100468.00;;;;5020737;28;20507;-80
2022/02/22 02:21:16;;;;;;;15.70;4.07;;;6.60;1.00;6.90;100471.00;;;;5017574;28;20460;-79
2022/02/22 02:23:46;;;;;;;13.63;3.90;;;6.70;1.00;6.90;100471.00;;;;5015522;28;20949;-80
2022/02/22 02:26:14;;;;;;;12.40;3.10;;;6.60;1.00;6.90;100489.00;;;;5004479;28;20461;-80
2022/02/22 02:28:42;;;;;;;20.80;4.30;;;6.50;1.00;6.90;100485.00;;;;5012567;28;20450;-79
2022/02/22 02:31:11;;;;;;;11.50;3.93;;;6.50;1.00;6.90;100493.00;;;;5014947;28;20442;-79
2022/02/22 02:33:39;;;;;;;18.57;3.73;;;6.50;1.00;7.00;100495.00;;;;5030113;28;20465;-79
2022/02/22 02:36:07;;;;;;;18.77;4.43;;;6.70;1.00;7.00;100491.00;;;;5002970;28;20464;-79
2022/02/22 02:38:36;;;;;;;15.50;4.70;;;6.70;1.00;7.00;100493.00;;;;5027918;28;20479;-79
2022/02/22 02:41:08;;;;;;;15.67;3.50;;;6.70;1.00;7.00;100496.00;;;;5015311;28;20472;-78
2022/02/22 02:43:36;;;;;;;23.23;5.60;;;6.70;1.00;7.10;100485.00;;;;5009952;28;20462;-81
2022/02/22 02:46:04;;;;;;;18.23;4.10;;;6.70;1.00;7.00;100476.00;;;;5032030;28;20527;-80
2022/02/22 02:48:33;;;;;;;20.20;4.10;;;7.00;1.00;7.10;100498.00;;;;5015028;28;20976;-81
2022/02/22 02:51:01;;;;;;;17.03;3.60;;;6.70;1.00;7.10;100504.00;;;;5018328;28;21180;-81
2022/02/22 02:53:29;;;;;;;18.13;4.97;;;7.00;1.00;7.10;100519.00;;;;5018124;28;20512;-81
2022/02/22 02:55:58;;;;;;;18.10;4.63;;;6.70;1.00;7.10;100509.00;;;;5016933;28;20457;-81
2022/02/22 02:58:28;;;;;;;22.47;4.70;;;6.70;1.00;7.10;100514.00;;;;5014944;28;20457;-81
2022/02/22 03:00:57;;;;;;;20.77;4.50;;;6.80;1.00;7.10;100518.00;;;;5004369;28;20458;-81
2022/02/22 03:03:25;;;;;;;13.33;3.17;;;6.80;1.00;7.10;100525.00;;;;5014654;28;20522;-81
2022/02/22 03:05:53;;;;;;;14.80;3.53;;;6.70;1.00;7.10;100538.00;;;;5015878;28;20477;-81
2022/02/22 03:08:22;;;;;;;15.63;4.17;;;6.80;1.00;6.90;100532.00;;;;5009023;28;20987;-78
2022/02/22 03:10:50;;;;;;;11.60;3.20;;;6.70;1.00;7.00;100545.00;;;;5001564;28;20454;-81
2022/02/22 03:13:18;;;;;;;18.63;4.37;;;6.70;1.00;7.00;100529.00;;;;5010997;28;20477;-79
2022/02/22 03:15:48;;;;;;;11.43;3.40;;;6.70;1.00;7.00;100509.00;;;;5028060;28;20472;-79
2022/02/22 03:18:16;;;;;;;15.57;3.07;;;6.70;1.00;7.00;100520.00;;;;4998217;28;21552;-80
2022/02/22 03:20:45;;;;;;;15.70;3.93;;;6.70;1.00;7.00;100543.00;;;;5012063;28;20453;-80
2022/02/22 03:23:13;;;;;;;12.50;3.90;;;6.70;1.00;7.00;100519.00;;;;5009488;28;20476;-80
2022/02/22 03:25:42;;;;;;;16.37;3.47;;;6.70;1.00;7.10;100518.00;;;;5010904;28;20481;-79
2022/02/22 03:28:10;;;;;;;13.57;4.30;;;6.70;1.00;7.20;100515.00;;;;5012575;28;20454;-80
2022/02/22 03:30:39;;;;;;;12.23;3.03;;;7.00;1.00;7.20;100561.00;;;;5004095;28;20453;-79
2022/02/22 03:33:10;;;;;;;14.57;3.27;;;6.90;1.00;7.30;100537.00;;;;5014139;28;20489;-81
2022/02/22 03:35:40;;;;;;;17.57;4.07;;;6.90;1.00;7.30;100545.00;;;;5024342;28;20563;-80
2022/02/22 03:38:09;;;;;;;12.10;3.63;;;7.00;1.00;7.30;100559.00;;;;5016910;28;20467;-81
2022/02/22 03:40:38;;;;;;;19.60;4.03;;;7.00;1.00;7.30;100562.00;;;;5017366;28;20471;-80
2022/02/22 03:43:07;;;;;;;12.43;4.33;;;7.00;1.00;7.40;100570.00;;;;5018052;28;20465;-79
2022/02/22 03:45:37;;;;;;;15.03;4.10;;;7.00;1.00;7.40;100570.00;;;;5015925;28;21030;-81
2022/02/22 03:48:06;;;;;;;15.10;3.43;;;7.10;1.00;7.50;100555.00;;;;5040675;28;20449;-80
2022/02/22 03:50:36;;;;;;;13.70;3.33;;;7.20;1.00;7.40;100592.00;;;;5046062;28;20453;-81
2022/02/22 03:53:04;;;;;;;19.80;4.87;;;7.30;1.00;7.40;100582.00;;;;5027278;28;20473;-80
2022/02/22 03:55:33;;;;;;;20.10;3.80;;;7.40;1.00;7.40;100580.00;;;;5028900;28;20473;-81
2022/02/22 03:58:01;;;;;;;17.07;3.60;;;7.10;1.00;7.30;100577.00;;;;5025096;28;20455;-80
2022/02/22 04:00:30;;;;;;;17.77;3.60;;;7.00;1.00;7.10;100572.00;;;;5033479;28;20462;-82
2022/02/22 04:02:59;;;;;;;18.83;4.43;;;6.90;1.00;7.20;100576.00;;;;5027625;28;20477;-80
2022/02/22 04:05:28;;;;;;;13.40;3.40;;;6.90;1.00;7.20;100590.00;;;;5028789;28;20847;-80
2022/02/22 04:07:57;;;;;;;13.10;3.97;;;6.80;1.00;7.10;100586.00;;;;5027438;28;20553;-81
2022/02/22 04:10:26;;;;;;;17.80;4.10;;;6.70;1.00;7.10;100618.00;;;;5035489;28;20468;-80
2022/02/22 04:12:54;;;;;;;13.67;3.77;;;6.70;1.00;7.00;100627.00;;;;5017878;28;20572;-80
2022/02/22 04:15:23;;;;;;;20.20;4.40;;;6.60;1.00;7.00;100609.00;;;;5036120;28;20464;-81
2022/02/22 04:17:51;;;;;;;10.90;2.87;;;6.60;1.00;7.00;100616.00;;;;5021948;28;20489;-80
2022/02/22 04:20:20;;;;;;;16.30;4.27;;;6.60;1.00;7.00;100629.00;;;;5026434;28;20492;-81
2022/02/22 04:22:50;;;;;;;19.67;3.90;;;6.60;1.00;7.00;100617.00;;;;5031506;28;20466;-80
2022/02/22 04:25:20;;;;;;;18.10;4.57;;;6.60;1.00;7.00;100638.00;;;;5022605;28;20524;-82
2022/02/22 04:27:51;;;;;;;20.40;5.20;;;6.90;1.00;6.90;100658.00;;;;5028451;28;20453;-80
2022/02/22 04:30:19;;;;;;;14.20;3.70;;;6.60;1.00;7.00;100652.00;;;;5037829;28;20479;-80
2022/02/22 04:32:48;;;;;;;18.20;3.90;;;6.50;1.00;6.90;100646.00;;;;5014981;28;20469;-80
2022/02/22 04:35:16;;;;;;;19.50;5.30;;;6.50;1.00;6.90;100663.00;;;;5030126;28;20779;-80
2022/02/22 04:37:44;;;;;;;12.10;3.80;;;6.40;1.00;6.70;100649.00;;;;5011648;28;20831;-79
2022/02/22 04:40:13;;;;;;;19.80;4.23;;;6.30;1.00;6.70;100633.00;;;;5006091;28;20454;-78
2022/02/22 04:42:46;;;;;;;18.63;3.90;;;6.30;1.00;6.70;100655.00;;;;5015224;28;20483;-79
2022/02/22 04:45:15;;;;;;;11.40;3.80;;;6.30;1.00;6.70;100651.00;;;;5020265;28;20472;-79
2022/02/22 04:47:44;;;;;;;20.33;4.20;;;6.20;1.00;6.40;100670.00;;;;5019901;28;20460;-79
2022/02/22 04:50:13;;;;;;;16.80;4.47;;;6.20;1.00;6.60;100669.00;;;;5024813;28;20506;-79
2022/02/22 04:52:41;;;;;;;9.50;3.60;;;6.10;1.00;6.60;100677.00;;;;5014317;28;20481;-80
2022/02/22 04:55:10;;;;;;;15.50;3.30;;;6.20;1.00;6.60;100684.00;;;;5023196;28;20466;-80
2022/02/22 04:57:39;;;;;;;11.97;3.70;;;6.10;1.00;6.50;100694.00;;;;5013836;28;20457;-79
2022/02/22 05:00:13;;;;;;;18.00;6.10;;;6.20;1.00;6.60;100703.00;;;;5016558;28;20457;-80
2022/02/22 05:02:42;;;;;;;16.90;4.33;;;6.20;1.00;6.60;100690.00;;;;5031788;28;20568;-80
2022/02/22 05:05:11;;;;;;;18.43;4.67;;;6.20;1.00;6.50;100698.00;;;;5022918;28;20460;-81
2022/02/22 05:07:39;;;;;;;16.10;3.70;;;6.10;1.00;6.50;100710.00;;;;5013254;28;20860;-80
2022/02/22 05:10:10;;;;;;;18.10;3.90;;;6.00;1.00;6.50;100698.00;;;;5013448;28;20559;-80
2022/02/22 05:12:39;;;;;;;20.97;3.90;;;6.00;1.00;6.50;100693.00;;;;5022071;28;20477;-80
2022/02/22 05:15:11;;;;;;;15.73;3.40;;;6.10;1.00;6.50;100700.00;;;;5017055;28;20453;-80
2022/02/22 05:17:39;;;;;;;21.27;4.80;;;6.00;1.00;6.50;100725.00;;;;5010893;28;20449;-80
2022/02/22 05:20:09;;;;;;;12.80;3.63;;;6.10;1.00;6.60;100731.00;;;;5010096;28;20469;-80
2022/02/22 05:22:42;;;;;;;14.80;3.80;;;6.10;1.00;6.60;100718.00;;;;5013340;28;20472;-79
2022/02/22 05:25:13;;;;;;;20.50;4.23;;;6.20;1.00;6.70;100730.00;;;;5028218;28;20909;-79
2022/02/22 05:27:42;;;;;;;17.33;3.93;;;6.30;1.00;6.70;100701.00;;;;5012204;28;20454;-80
2022/02/22 05:30:14;;;;;;;15.87;4.90;;;6.40;1.00;6.80;100719.00;;;;5030908;28;20454;-80
2022/02/22 05:32:43;;;;;;;16.50;4.20;;;6.50;1.00;6.90;100722.00;;;;5014781;28;20473;-79
2022/02/22 05:35:14;;;;;;;11.93;3.80;;;6.50;1.00;6.90;100723.00;;;;5022090;28;20457;-79
2022/02/22 05:37:42;;;;;;;19.23;4.10;;;6.50;1.00;6.90;100716.00;;;;5011975;28;20552;-81
2022/02/22 05:40:13;;;;;;;18.27;3.53;;;6.50;1.00;6.80;100710.00;;;;5009180;28;20473;-80
2022/02/22 05:42:41;;;;;;;12.73;4.00;;;6.50;1.00;6.80;100740.00;;;;5022895;28;20569;-81
2022/02/22 05:45:13;;;;;;;12.00;3.87;;;6.50;1.00;6.80;100735.00;;;;5030815;28;20453;-79
2022/02/22 05:47:41;;;;;;;14.40;4.10;;;6.50;1.00;6.80;100737.00;;;;5012006;28;20468;-79
2022/02/22 05:50:12;;;;;;;11.20;3.83;;;6.50;1.00;6.80;100755.00;;;;5018614;28;20468;-79
2022/02/22 05:52:40;;;;;;;11.20;3.77;;;6.50;1.00;6.90;100753.00;;;;5020718;28;20481;-80
2022/02/22 05:55:10;;;;;;;14.63;3.40;;;6.80;1.00;6.90;100746.00;;;;5014464;28;20472;-79
2022/02/22 05:57:38;;;;;;;13.53;4.00;;;6.50;1.00;6.90;100757.00;;;;5015723;28;20548;-79
2022/02/22 06:00:08;;;;;;;11.50;3.97;;;6.60;1.00;7.00;100757.00;;;;5010281;28;20445;-80
2022/02/22 06:02:38;;;;;;;10.63;3.83;;;6.70;1.00;7.10;100738.00;;;;5013213;28;20482;-79
2022/02/22 06:05:08;;;;;;;16.17;3.90;;;6.80;1.00;7.20;100768.00;;;;5026376;28;20464;-81
2022/02/22 06:07:36;;;;;;;16.87;4.10;;;6.90;1.00;7.30;100753.00;;;;5012256;28;20469;-79
2022/02/22 06:10:06;;;;;;;16.67;4.80;;;7.00;1.00;7.30;100768.00;;;;5014304;28;20496;-80
2022/02/22 06:12:34;;;;;;;22.07;4.80;;;7.10;1.00;7.40;100775.00;;;;5002754;28;20474;-79
2022/02/22 06:15:05;;;;;;;16.87;4.00;;;7.10;1.00;7.40;100774.00;;;;5013884;28;20466;-79
2022/02/22 06:17:41;;;;;;;15.77;4.70;;;7.10;1.00;7.40;100765.00;;;;5026249;28;20445;-80
2022/02/22 06:20:12;;;;;;;20.20;4.00;;;7.10;1.00;7.40;100777.00;;;;5015503;28;20569;-81
2022/02/22 06:22:41;;;;;;;17.03;4.90;;;7.00;1.00;7.40;100778.00;;;;5014861;28;20476;-79
2022/02/22 06:25:11;;;;;;;20.60;5.10;;;7.10;1.00;7.30;100789.00;;;;5015671;28;20457;-79
2022/02/22 06:27:48;;;;;;;19.80;4.43;;;6.90;1.00;7.30;100774.00;;;;5036419;28;20567;-81
2022/02/22 06:30:17;;;;;;;17.00;5.63;;;6.90;1.00;7.20;100789.00;;;;5027919;28;20507;-81
2022/02/22 06:32:47;;;;;;;20.90;5.00;;;6.80;1.00;7.10;100781.00;;;;5022960;28;20522;-80
2022/02/22 06:35:16;;;;;;;11.10;4.00;;;6.80;1.00;7.20;100811.00;;;;5023326;28;20437;-80
2022/02/22 06:37:44;;;;;;;15.23;4.30;;;6.80;1.00;7.20;100831.00;;;;5020559;28;20472;-82
2022/02/22 06:40:13;;;;;;;12.97;3.73;;;6.90;1.00;7.30;100801.00;;;;5027571;28;20451;-82
2022/02/22 06:42:41;;;;;;;16.23;5.00;;;6.90;1.00;7.30;100830.00;;;;5034513;28;20576;-79
2022/02/22 06:45:11;;;;;;;18.30;4.60;;;7.00;1.00;7.30;100815.00;;;;5028435;28;20465;-80
2022/02/22 06:47:40;;;;;;;16.83;3.93;;;7.00;1.00;7.40;100813.00;;;;5023046;28;20595;-80
2022/02/22 06:50:14;;;;;;;12.07;3.57;;;7.10;1.00;7.40;100816.00;;;;5046818;28;20446;-80
2022/02/22 06:52:42;;;;;;;16.07;4.20;;;7.10;1.00;7.50;100844.00;;;;5024637;28;20487;-81
2022/02/22 06:55:13;;;;;;;13.00;4.47;;;7.20;1.00;7.50;100854.00;;;;5053474;28;20440;-80
2022/02/22 06:57:42;;;;;;;17.03;4.17;;;7.20;1.00;7.50;100861.00;;;;5036927;28;20524;-81
2022/02/22 07:00:13;;;;;;;18.70;4.27;;;7.20;1.00;7.50;100847.00;;;;5048304;28;20477;-81
2022/02/22 07:02:42;;;;;;;16.53;3.80;;;7.10;1.00;7.50;100834.00;;;;5044439;28;20485;-81
2022/02/22 07:05:11;;;;;;;18.83;4.30;;;7.10;1.00;7.50;100851.00;;;;5038257;28;20464;-80
2022/02/22 07:07:46;;;;;;;19.57;6.17;;;7.10;1.00;7.50;100838.00;;;;5036011;28;20501;-80
2022/02/22 07:10:15;;;;;;;13.20;3.50;;;7.00;1.00;7.50;100872.00;;;;5036540;28;20454;-80
2022/02/22 07:12:44;;;;;;;22.53;3.50;;;7.10;1.00;7.60;100871.00;;;;5053430;28;20549;-79
2022/02/22 07:15:14;;;;;;;13.87;3.90;;;7.20;1.00;7.70;100871.00;;;;5037848;28;20476;-80
2022/02/22 07:17:47;;;;;;;18.37;4.93;;;7.40;1.00;7.80;100872.00;;;;5031194;28;20461;-80
2022/02/22 07:20:16;;;;;;;18.10;5.77;;;7.50;1.00;7.90;100884.00;;;;5038486;28;20524;-80
2022/02/22 07:22:45;;;;;;;16.20;4.57;;;7.50;1.00;8.00;100892.00;;;;5039186;28;20529;-79
2022/02/22 07:25:15;;;;;;;18.20;4.73;;;7.60;1.00;8.00;100894.00;;;;5022902;28;20468;-80
2022/02/22 07:27:45;;;;;;;12.40;3.43;;;7.60;1.00;8.10;100896.00;;;;5012139;28;20469;-80
2022/02/22 07:30:17;;;;;;;19.57;4.07;;;7.70;1.00;8.20;100894.00;;;;5026138;28;20459;-81
2022/02/22 07:32:47;;;;;;;18.20;4.50;;;7.80;1.00;8.20;100892.00;;;;5041472;28;20501;-81
2022/02/22 07:35:16;;;;;;;19.30;4.20;;;7.80;1.00;8.20;100907.00;;;;5025518;28;20476;-81
2022/02/22 07:37:45;;;;;;;18.87;4.67;;;7.70;1.00;8.20;100910.00;;;;5037244;28;20449;-82
2022/02/22 07:40:16;;;;;;;16.97;4.07;;;7.70;1.00;8.10;100927.00;;;;5026060;28;20454;-80
2022/02/22 07:42:45;;;;;;;13.27;4.50;;;7.70;1.00;8.10;100920.00;;;;5027431;28;20508;-79
2022/02/22 07:45:16;;;;;;;20.23;3.47;;;7.70;1.00;8.00;100917.00;;;;5023763;28;20476;-80
2022/02/22 07:47:45;;;;;;;19.50;3.83;;;7.60;1.00;7.90;100921.00;;;;5039294;28;20476;-79
2022/02/22 07:50:13;;;;;;;15.27;3.60;;;7.50;1.00;7.90;100929.00;;;;5021539;28;20442;-80
2022/02/22 07:52:42;;;;;;;17.83;3.90;;;7.50;1.00;7.80;100937.00;;;;5043760;28;20473;-79
2022/02/22 07:55:10;;;;;;;14.83;4.50;;;7.50;1.00;7.90;100947.00;;;;5025120;28;20457;-80
2022/02/22 07:57:40;;;;;;;14.57;3.57;;;7.40;1.00;8.00;100936.00;;;;5046343;28;21026;-79
2022/02/22 08:00:10;;;;;;;17.50;4.17;;;7.40;1.00;8.10;100956.00;;;;5018968;28;20480;-80
2022/02/22 08:02:40;;;;;;;13.33;3.60;;;7.50;1.00;8.40;100930.00;;;;5028313;28;20520;-79
2022/02/22 08:05:09;;;;;;;14.63;5.03;;;7.80;1.00;8.60;100934.00;;;;5019569;28;20448;-81
2022/02/22 08:07:37;;;;;;;11.43;3.90;;;8.00;1.00;8.90;100951.00;;;;5022960;28;20572;-79
2022/02/22 08:10:08;;;;;;;13.63;3.57;;;8.40;1.00;9.10;100952.00;;;;5024500;28;20556;-78
2022/02/22 08:12:37;;;;;;;15.40;3.57;;;8.70;1.00;9.20;100967.00;;;;5021741;28;20476;-79
2022/02/22 08:15:07;;;;;;;14.93;3.60;;;9.10;1.00;9.00;100960.00;;;;5017691;28;20460;-77
2022/02/22 08:17:42;;;;;;;14.77;4.90;;;8.60;1.00;8.80;100938.00;;;;5019546;28;20461;-80
2022/02/22 08:20:12;;;;;;;18.77;3.67;;;8.40;1.00;8.80;100965.00;;;;5039442;28;20467;-79
2022/02/22 08:22:41;;;;;;;17.07;4.03;;;8.20;1.00;8.70;100963.00;;;;5032334;28;20509;-79
2022/02/22 08:25:10;;;;;;;11.87;3.37;;;8.20;1.00;8.60;100968.00;;;;5018724;28;20461;-79
2022/02/22 08:27:39;;;;;;;14.13;4.13;;;8.10;1.00;8.70;100963.00;;;;5036818;28;20496;-78
2022/02/22 08:30:08;;;;;;;14.47;3.10;;;8.10;1.00;8.70;100964.00;;;;5020205;28;20446;-79
2022/02/22 08:32:37;;;;;;;15.60;4.30;;;8.20;1.00;8.80;100930.00;;;;5019070;28;20477;-78
2022/02/22 08:35:08;;;;;;;14.03;3.60;;;8.20;1.00;8.80;100969.00;;;;5017935;28;20465;-80
2022/02/22 08:37:37;;;;;;;11.93;3.80;;;8.20;1.00;8.90;100944.00;;;;5020383;28;20477;-79
2022/02/22 08:40:08;;;;;;;12.83;3.90;;;8.30;1.00;8.90;100961.00;;;;5020396;28;20545;-80
2022/02/22 08:42:40;;;;;;;17.00;4.10;;;8.40;1.00;9.00;100960.00;;;;5030082;28;20493;-80
2022/02/22 08:45:22;;;;;;;11.17;3.20;;;8.50;1.00;9.00;100985.00;;;;5052926;28;20495;-81
2022/02/22 08:47:50;;;;;;;12.47;2.83;;;8.60;1.00;9.00;100954.00;;;;5034303;28;20477;-81
2022/02/22 08:50:20;;;;;;;11.07;3.57;;;8.50;1.00;9.10;100964.00;;;;5034633;28;20460;-81
2022/02/22 08:52:49;;;;;;;13.50;2.90;;;8.50;1.00;9.10;100966.00;;;;5036592;28;20565;-81
2022/02/22 08:55:18;;;;;;;11.27;3.43;;;8.60;1.00;9.30;101004.00;;;;5037882;28;20458;-81
2022/02/22 08:57:46;;;;;;;8.50;3.27;;;8.80;1.00;9.50;100968.00;;;;5036089;28;20459;-81
2022/02/22 09:00:16;;;;;;;16.30;4.67;;;9.00;1.00;9.80;100987.00;;;;5038332;28;20433;-82
2022/02/22 09:02:45;;;;;;;11.77;3.40;;;9.30;1.00;10.00;100973.00;;;;5048446;28;20508;-82
2022/02/22 09:05:13;;;;;;;15.13;2.87;;;9.50;1.00;10.10;100960.00;;;;5039538;28;20476;-81
2022/02/22 09:07:45;;;;;;;14.57;3.63;;;9.60;1.00;10.20;100973.00;;;;5039930;28;20493;-81
2022/02/22 09:10:14;;;;;;;15.17;3.23;;;9.80;1.00;10.20;100974.00;;;;5050122;28;20474;-80
2022/02/22 09:12:43;;;;;;;14.13;2.90;;;9.90;1.00;10.20;100977.00;;;;5047611;28;20488;-81
2022/02/22 09:15:13;;;;;;;14.10;3.50;;;10.00;1.00;10.30;100987.00;;;;5032083;28;20481;-81
2022/02/22 09:17:42;;;;;;;7.90;3.00;;;10.00;1.00;10.20;101001.00;;;;5042501;28;20472;-81
2022/02/22 09:20:13;;;;;;;12.30;3.30;;;10.00;1.00;10.20;100985.00;;;;5030850;28;20453;-80
2022/02/22 09:22:44;;;;;;;11.10;2.87;;;10.00;1.00;10.20;101000.00;;;;5033200;28;20560;-81
2022/02/22 09:25:15;;;;;;;16.80;5.70;;;9.90;1.00;10.10;100982.00;;;;5051881;28;20464;-80
2022/02/22 09:27:44;;;;;;;10.40;2.50;;;9.80;1.00;10.20;101002.00;;;;5035654;28;20552;-80
2022/02/22 09:30:16;;;;;;;15.43;4.10;;;9.80;1.00;10.30;100984.00;;;;5023160;28;20441;-78
2022/02/22 09:32:47;;;;;;;9.57;3.07;;;9.90;1.00;10.40;100961.00;;;;5015356;28;20536;-78
2022/02/22 09:35:19;;;;;;;14.60;2.70;;;10.40;1.00;10.40;100995.00;;;;5021833;28;20817;-79
2022/02/22 09:37:49;;;;;;;11.83;3.10;;;10.10;1.00;10.50;100977.00;;;;5035114;28;20458;-79
2022/02/22 09:40:18;;;;;;;10.90;3.50;;;10.20;1.00;10.60;100984.00;;;;5032958;28;20492;-79
2022/02/22 09:42:47;;;;;;;12.43;2.70;;;10.30;1.00;10.70;100980.00;;;;5017949;28;20874;-79
2022/02/22 09:45:16;;;;;;;8.13;2.67;;;10.20;1.00;10.90;100973.00;;;;5012684;28;20529;-77
2022/02/22 09:47:47;;;;;;;13.00;2.77;;;10.50;1.00;11.00;100976.00;;;;5017265;28;20466;-79
2022/02/22 09:50:17;;;;;;;13.20;3.03;;;10.70;1.00;10.80;100980.00;;;;5020368;28;20452;-78
2022/02/22 09:52:46;;;;;;;10.40;3.00;;;10.50;1.00;10.80;100976.00;;;;5045434;28;20473;-80
2022/02/22 09:55:18;;;;;;;14.10;3.73;;;10.30;1.00;10.70;100970.00;;;;5023360;28;20463;-77
2022/02/22 09:57:53;;;;;;;8.70;2.90;;;10.20;1.00;10.90;100965.00;;;;5003550;28;20571;-79
2022/02/22 10:00:24;;;;;;;19.93;3.77;;;10.50;1.00;10.90;100980.00;;;;5013938;28;21339;-80
2022/02/22 10:02:53;;;;;;;15.53;3.37;;;10.50;1.00;10.90;100949.00;;;;5015296;28;20477;-79
2022/02/22 10:05:24;;;;;;;13.40;2.77;;;10.50;1.00;10.90;100969.00;;;;5033322;28;20453;-79
2022/02/22 10:07:59;;;;;;;15.40;2.87;;;10.40;1.00;11.20;100973.00;;;;5018414;28;20454;-81
2022/02/22 10:10:39;;;;;;;13.90;3.43;;;10.80;1.00;11.30;100933.00;;;;5020168;28;20504;-78
2022/02/22 10:13:18;;;;;;;13.20;3.20;;;10.90;1.00;11.30;100946.00;;;;5032001;28;20484;-80
2022/02/22 10:15:50;;;;;;;8.80;3.33;;;11.00;1.00;11.40;100959.00;;;;5031039;28;20958;-78
2022/02/22 10:18:21;;;;;;;7.97;2.50;;;11.10;1.00;11.30;100951.00;;;;5015213;28;21056;-79
2022/02/22 10:20:53;;;;;;;16.33;4.07;;;11.00;1.00;11.20;100957.00;;;;5030271;28;20986;-78
2022/02/22 10:23:33;;;;;;;11.97;3.50;;;10.70;1.00;11.30;100942.00;;;;5030637;28;20628;-82
2022/02/22 10:26:05;;;;;;;9.13;2.67;;;10.80;1.00;11.50;100962.00;;;;5033802;28;20457;-77
2022/02/22 10:28:38;;;;;;;16.03;3.43;;;11.10;1.00;11.60;100951.00;;;;5033931;28;20555;-78
2022/02/22 10:31:10;;;;;;;12.07;3.33;;;11.30;1.00;11.80;100945.00;;;;5016988;28;20448;-78
2022/02/22 10:33:44;;;;;;;11.27;2.87;;;11.40;1.00;11.90;100935.00;;;;5017606;28;20445;-80
2022/02/22 10:36:35;;;;;;;12.03;3.60;;;11.50;1.00;11.60;100947.00;;;;5016732;28;20456;-81
2022/02/22 10:39:07;;;;;;;16.50;3.77;;;11.50;1.00;11.70;100934.00;;;;5019004;28;20469;-77
2022/02/22 10:41:39;;;;;;;9.00;3.33;;;11.30;1.00;11.80;100926.00;;;;5030856;28;20480;-77
2022/02/22 10:44:09;;;;;;;13.10;4.13;;;11.40;1.00;11.90;100916.00;;;;5032796;28;20479;-82
2022/02/22 10:46:45;;;;;;;9.30;2.90;;;11.50;1.00;11.90;100907.00;;;;5016189;28;20453;-79
2022/02/22 10:49:16;;;;;;;11.27;2.77;;;11.50;1.00;12.00;100926.00;;;;5034193;28;20484;-77
2022/02/22 10:51:49;;;;;;;10.43;3.10;;;11.60;1.00;11.90;100913.00;;;;5015802;28;20468;-83
2022/02/22 10:54:21;;;;;;;8.40;2.80;;;11.50;1.00;12.00;100918.00;;;;5017488;28;20490;-79
2022/02/22 10:56:56;;;;;;;10.13;2.93;;;11.60;1.00;12.20;100924.00;;;;5007311;28;20478;-78
2022/02/22 10:59:26;;;;;;;7.10;3.70;;;11.80;1.00;12.20;100923.00;;;;5010191;28;20460;-80
2022/02/22 11:01:58;;;;;;;11.13;3.33;;;11.90;1.00;12.20;100926.00;;;;5022053;28;20473;-80
2022/02/22 11:04:31;;;;;;;10.10;3.20;;;11.90;1.00;12.10;100909.00;;;;5016897;28;20561;-80
2022/02/22 11:06:59;;;;;;;8.80;2.60;;;11.80;1.00;12.20;100895.00;;;;5008377;28;20461;-79
2022/02/22 11:09:29;;;;;;;9.80;2.67;;;11.80;1.00;12.20;100922.00;;;;5030255;28;20474;-80
2022/02/22 11:12:03;;;;;;;8.87;3.37;;;11.70;1.00;12.10;100900.00;;;;5013981;28;21031;-81